createdAt,value
2022-11-12T00:02:30.251Z,102921.41
2022-11-12T00:05:18.370Z,102920.78
2022-11-12T00:08:06.578Z,102911.25
2022-11-12T00:10:54.600Z,102907.94
2022-11-12T00:13:42.068Z,102911.31
2022-11-12T00:16:29.647Z,102906.38
2022-11-12T00:19:18.643Z,102910.75
2022-11-12T00:22:06.479Z,102908.16
2022-11-12T00:24:53.981Z,102911.75
2022-11-12T00:27:41.587Z,102910.06
2022-11-12T00:30:29.145Z,102914.31
2022-11-12T00:33:16.650Z,102914.47
2022-11-12T00:36:06.271Z,102908.53
2022-11-12T00:38:53.881Z,102909.66
2022-11-12T00:41:41.614Z,102916.66
2022-11-12T00:44:29.726Z,102911.44
2022-11-12T00:47:17.539Z,102906.34
2022-11-12T00:50:05.936Z,102907.34
2022-11-12T00:52:55.399Z,102913.41
2022-11-12T00:55:43.087Z,102913.50
2022-11-12T00:58:31.414Z,102908.25
2022-11-12T01:01:19.417Z,102908.31
2022-11-12T01:04:07.188Z,102904.72
2022-11-12T01:06:54.786Z,102910.88
2022-11-12T01:09:43.724Z,102915.22
2022-11-12T01:12:32.688Z,102905.53
2022-11-12T01:15:20.490Z,102914.41
2022-11-12T01:18:08.024Z,102918.81
2022-11-12T01:20:55.673Z,102912.66
2022-11-12T01:23:44.060Z,102912.72
2022-11-12T01:26:33.359Z,102910.19
2022-11-12T01:29:20.909Z,102914.56
2022-11-12T01:32:08.924Z,102921.53
2022-11-12T01:34:56.376Z,102917.88
2022-11-12T01:37:43.995Z,102911.84
2022-11-12T01:40:32.791Z,102916.28
2022-11-12T01:43:22.032Z,102912.81
2022-11-12T01:46:17.901Z,102910.19
2022-11-12T01:49:12.247Z,102907.56
2022-11-12T01:52:09.464Z,102917.94
2022-11-12T01:55:02.476Z,102907.34
2022-11-12T01:57:53.632Z,102922.91
2022-11-12T02:00:43.050Z,102922.34
2022-11-12T02:03:31.932Z,102920.72
2022-11-12T02:06:21.622Z,102918.03
2022-11-12T02:09:10.651Z,102911.03
2022-11-12T02:11:59.325Z,102912.50
2022-11-12T02:14:46.224Z,102916.03
2022-11-12T02:17:35.396Z,102909.19
2022-11-12T02:20:23.281Z,102904.78
2022-11-12T02:23:12.704Z,102897.13
2022-11-12T02:26:01.122Z,102902.06
2022-11-12T02:28:48.789Z,102898.16
2022-11-12T02:31:37.463Z,102895.19
2022-11-12T02:34:25.063Z,102900.72
2022-11-12T02:37:12.902Z,102893.44
2022-11-12T02:40:01.662Z,102910.84
2022-11-12T02:42:49.562Z,102897.88
2022-11-12T02:45:37.309Z,102910.47
2022-11-12T02:48:24.840Z,102914.81
2022-11-12T02:51:12.637Z,102903.78
2022-11-12T02:54:00.454Z,102900.34
2022-11-12T02:56:49.609Z,102904.97
2022-11-12T02:59:37.155Z,102907.06
2022-11-12T03:02:24.885Z,102920.75
2022-11-12T03:05:13.423Z,102910.38
2022-11-12T03:08:02.567Z,102920.38
2022-11-12T03:10:50.421Z,102906.66
2022-11-12T03:13:39.905Z,102915.00
2022-11-12T03:16:28.116Z,102913.63
2022-11-12T03:19:15.767Z,102913.63
2022-11-12T03:22:03.409Z,102922.03
2022-11-12T03:24:50.926Z,102917.44
2022-11-12T03:27:38.441Z,102921.47
2022-11-12T03:30:29.450Z,102932.88
2022-11-12T03:33:17.338Z,102933.91
2022-11-12T03:36:05.424Z,102918.50
2022-11-12T03:38:52.883Z,102916.97
2022-11-12T03:41:40.334Z,102916.38
2022-11-12T03:44:27.901Z,102939.22
2022-11-12T03:47:16.692Z,102940.44
2022-11-12T03:50:04.695Z,102928.47
2022-11-12T03:52:57.037Z,102947.72
2022-11-12T03:55:44.571Z,102941.59
2022-11-12T03:58:32.139Z,102947.13
2022-11-12T04:01:19.702Z,102949.91
2022-11-12T04:04:08.607Z,102944.81
2022-11-12T04:07:13.775Z,102951.19
2022-11-12T04:10:01.596Z,102959.19
2022-11-12T04:13:06.651Z,102937.47
2022-11-12T04:16:08.324Z,102948.34
2022-11-12T04:19:14.961Z,102957.19
2022-11-12T04:22:07.829Z,102958.09
2022-11-12T04:25:12.965Z,102960.31
2022-11-12T04:28:00.930Z,102947.59
2022-11-12T04:30:47.568Z,102952.81
2022-11-12T04:33:34.989Z,102953.88
2022-11-12T04:36:22.372Z,102954.56
2022-11-12T04:39:11.401Z,102957.03
2022-11-12T04:42:16.748Z,102957.00
2022-11-12T04:45:05.381Z,102951.91
2022-11-12T04:47:52.817Z,102957.28
2022-11-12T04:50:41.672Z,102957.44
2022-11-12T04:53:30.764Z,102972.34
2022-11-12T04:56:19.716Z,102986.84
2022-11-12T04:59:07.508Z,102967.72
2022-11-12T05:01:55.193Z,102968.84
2022-11-12T05:04:42.923Z,102964.94
2022-11-12T05:07:32.918Z,102959.53
2022-11-12T05:10:20.453Z,102971.84
2022-11-12T05:13:09.346Z,102961.53
2022-11-12T05:15:57.263Z,102974.25
2022-11-12T05:18:44.772Z,102968.28
2022-11-12T05:21:50.101Z,102974.94
2022-11-12T05:24:42.628Z,102987.41
2022-11-12T05:27:30.547Z,102977.69
2022-11-12T05:30:19.743Z,102981.94
2022-11-12T05:33:07.250Z,102977.72
2022-11-12T05:35:57.629Z,102983.03
2022-11-12T05:38:45.430Z,102984.38
2022-11-12T05:41:57.946Z,102979.19
2022-11-12T05:44:40.330Z,102961.56
2022-11-12T05:47:29.202Z,102966.91
2022-11-12T05:50:17.115Z,102973.19
2022-11-12T05:53:05.050Z,102979.34
2022-11-12T05:55:52.528Z,102968.72
2022-11-12T05:58:40.435Z,102964.56
2022-11-12T06:01:28.042Z,102979.50
2022-11-12T06:04:17.712Z,102985.84
2022-11-12T06:07:05.364Z,102984.66
2022-11-12T06:09:53.340Z,102981.31
2022-11-12T06:12:40.753Z,102983.34
2022-11-12T06:15:28.496Z,102992.94
2022-11-12T06:18:16.225Z,102978.16
2022-11-12T06:21:23.036Z,102973.16
2022-11-12T06:24:11.227Z,102985.94
2022-11-12T06:26:58.783Z,102992.94
2022-11-12T06:29:46.267Z,102989.31
2022-11-12T06:32:34.397Z,102992.72
2022-11-12T06:35:22.224Z,102993.78
2022-11-12T06:38:11.181Z,102989.66
2022-11-12T06:40:59.171Z,102998.56
2022-11-12T06:43:46.686Z,103007.97
2022-11-12T06:46:34.217Z,102994.91
2022-11-12T06:49:22.102Z,102988.25
2022-11-12T06:52:15.201Z,102994.25
2022-11-12T06:55:06.122Z,103007.34
2022-11-12T06:57:54.111Z,103016.00
2022-11-12T07:00:42.154Z,103020.22
2022-11-12T07:03:29.563Z,103015.03
2022-11-12T07:06:20.167Z,103006.44
2022-11-12T07:09:08.190Z,103027.34
2022-11-12T07:11:56.968Z,103018.28
2022-11-12T07:14:46.581Z,103010.59
2022-11-12T07:17:34.403Z,103024.63
2022-11-12T07:20:22.017Z,103021.19
2022-11-12T07:23:09.576Z,103035.06
2022-11-12T07:25:58.567Z,103040.16
2022-11-12T07:28:47.744Z,103032.22
2022-11-12T07:31:35.988Z,103038.31
2022-11-12T07:34:23.914Z,103047.84
2022-11-12T07:37:11.449Z,103037.03
2022-11-12T07:40:00.051Z,103051.78
2022-11-12T07:42:47.688Z,103046.38
2022-11-12T07:45:36.651Z,103044.53
2022-11-12T07:48:24.770Z,103033.38
2022-11-12T07:51:15.671Z,103035.00
2022-11-12T07:54:04.236Z,103037.75
2022-11-12T07:56:51.719Z,103031.56
2022-11-12T07:59:44.753Z,103041.03
2022-11-12T08:02:35.328Z,103041.88
2022-11-12T08:05:23.197Z,103046.94
2022-11-12T08:08:11.131Z,103053.56
2022-11-12T08:10:59.585Z,103050.25
2022-11-12T08:13:47.474Z,103049.75
2022-11-12T08:16:34.992Z,103056.22
2022-11-12T08:19:23.824Z,103062.53
2022-11-12T08:22:11.872Z,103067.16
2022-11-12T08:24:59.692Z,103042.56
2022-11-12T08:27:47.388Z,103047.75
2022-11-12T08:30:36.092Z,103060.25
2022-11-12T08:33:23.676Z,103051.09
2022-11-12T08:36:14.668Z,103038.94
2022-11-12T08:39:02.257Z,103059.69
2022-11-12T08:41:49.927Z,103058.69
2022-11-12T08:44:37.507Z,103046.63
2022-11-12T08:47:24.894Z,103055.34
2022-11-12T08:50:12.527Z,103062.19
2022-11-12T08:53:06.160Z,103059.50
2022-11-12T08:55:55.355Z,103061.13
2022-11-12T08:58:43.189Z,103048.72
2022-11-12T09:01:30.795Z,103059.00
2022-11-12T09:04:18.707Z,103062.94
2022-11-12T09:07:09.323Z,103068.16
2022-11-12T09:09:58.625Z,103064.19
2022-11-12T09:12:51.523Z,103065.56
2022-11-12T09:15:39.694Z,103069.03
2022-11-12T09:18:27.590Z,103069.41
2022-11-12T09:21:15.769Z,103077.56
2022-11-12T09:24:03.819Z,103076.59
2022-11-12T09:26:54.748Z,103073.75
2022-11-12T09:29:42.391Z,103075.53
2022-11-12T09:32:29.822Z,103074.69
2022-11-12T09:35:17.402Z,103080.25
2022-11-12T09:38:04.996Z,103085.69
2022-11-12T09:41:17.329Z,103072.03
2022-11-12T09:44:10.012Z,103077.84
2022-11-12T09:47:03.918Z,103076.16
2022-11-12T09:49:59.849Z,103076.16
2022-11-12T09:52:49.063Z,103075.34
2022-11-12T09:55:42.034Z,103084.22
2022-11-12T09:58:30.131Z,103079.69
2022-11-12T10:01:25.192Z,103073.47
2022-11-12T10:04:27.521Z,103077.69
2022-11-12T10:07:25.621Z,103086.38
2022-11-12T10:10:17.649Z,103074.47
2022-11-12T10:13:16.155Z,103062.31
2022-11-12T10:16:35.569Z,103071.09
2022-11-12T10:19:43.659Z,103083.41
2022-11-12T10:22:41.812Z,103080.53
2022-11-12T10:25:30.833Z,103071.59
2022-11-12T10:28:30.198Z,103078.78
2022-11-12T10:31:22.143Z,103089.31
2022-11-12T10:34:16.917Z,103093.94
2022-11-12T10:37:07.644Z,103090.06
2022-11-12T10:39:55.284Z,103085.97
2022-11-12T10:42:58.847Z,103090.03
2022-11-12T10:45:48.141Z,103104.63
2022-11-12T10:48:37.193Z,103097.88
2022-11-12T10:51:31.071Z,103089.75
2022-11-12T10:54:31.191Z,103090.78
2022-11-12T10:57:23.647Z,103095.66
2022-11-12T11:00:20.038Z,103089.31
2022-11-12T11:03:18.246Z,103093.31
2022-11-12T11:06:07.895Z,103086.56
2022-11-12T11:09:10.087Z,103072.03
2022-11-12T11:11:59.614Z,103067.53
2022-11-12T11:14:47.560Z,103062.88
2022-11-12T11:17:36.514Z,103067.13
2022-11-12T11:20:27.160Z,103067.50
2022-11-12T11:23:21.369Z,103059.41
2022-11-12T11:26:26.160Z,103065.13
2022-11-12T11:29:36.276Z,103066.72
2022-11-12T11:33:00.799Z,103073.25
2022-11-12T11:35:58.785Z,103065.53
2022-11-12T11:38:58.482Z,103065.38
2022-11-12T11:42:01.343Z,103073.75
2022-11-12T11:45:01.053Z,103073.25
2022-11-12T11:48:01.736Z,103081.03
2022-11-12T11:50:58.650Z,103069.03
2022-11-12T11:53:55.009Z,103070.34
2022-11-12T11:56:45.132Z,103077.00
2022-11-12T11:59:46.481Z,103074.94
2022-11-12T12:02:55.403Z,103073.97
2022-11-12T12:05:47.004Z,103066.94
2022-11-12T12:09:00.534Z,103063.63
2022-11-12T12:11:57.219Z,103073.13
2022-11-12T12:14:58.269Z,103077.09
2022-11-12T12:17:58.837Z,103064.69
2022-11-12T12:20:52.679Z,103071.44
2022-11-12T12:23:45.514Z,103074.06
2022-11-12T12:26:41.339Z,103059.22
2022-11-12T12:29:35.378Z,103048.88
2022-11-12T12:32:28.042Z,103058.91
2022-11-12T12:35:25.071Z,103061.78
2022-11-12T12:38:19.481Z,103052.41
2022-11-12T12:41:15.910Z,103046.28
2022-11-12T12:44:06.939Z,103046.22
2022-11-12T12:46:59.790Z,103047.34
2022-11-12T12:49:49.872Z,103039.38
2022-11-12T12:53:04.186Z,103039.94
2022-11-12T12:55:53.812Z,103037.41
2022-11-12T12:58:45.175Z,103029.00
2022-11-12T13:01:36.369Z,103030.19
2022-11-12T13:04:52.723Z,103037.84
2022-11-12T13:07:43.672Z,103031.91
2022-11-12T13:10:59.488Z,103022.91
2022-11-12T13:13:47.138Z,103024.09
2022-11-12T13:16:58.514Z,103024.34
2022-11-12T13:19:48.647Z,103014.69
2022-11-12T13:22:51.870Z,103007.88
2022-11-12T13:25:40.257Z,103010.16
2022-11-12T13:28:29.563Z,103009.00
2022-11-12T13:31:28.725Z,103006.34
2022-11-12T13:34:27.117Z,103002.13
2022-11-12T13:37:21.399Z,102998.91
2022-11-12T13:40:14.650Z,103005.00
2022-11-12T13:43:11.059Z,103000.59
2022-11-12T13:46:11.768Z,102997.34
2022-11-12T13:49:03.164Z,102996.56
2022-11-12T13:51:53.190Z,102998.25
2022-11-12T13:54:41.275Z,102989.78
2022-11-12T13:57:31.623Z,102986.31
2022-11-12T14:00:26.473Z,102995.25
2022-11-12T14:03:20.145Z,102985.41
2022-11-12T14:06:16.590Z,102994.22
2022-11-12T14:09:34.839Z,102992.66
2022-11-12T14:12:38.428Z,102982.19
2022-11-12T14:15:37.305Z,102976.47
2022-11-12T14:18:37.503Z,102982.44
2022-11-12T14:21:25.088Z,102982.09
2022-11-12T14:24:14.839Z,102978.75
2022-11-12T14:27:02.684Z,102979.09
2022-11-12T14:29:50.067Z,102983.16
2022-11-12T14:32:38.514Z,102991.56
2022-11-12T14:35:38.463Z,102984.59
2022-11-12T14:38:31.616Z,102987.53
2022-11-12T14:41:22.365Z,102987.91
2022-11-12T14:44:18.480Z,102994.53
2022-11-12T14:47:06.192Z,103001.75
2022-11-12T14:49:54.131Z,102997.66
2022-11-12T14:52:48.235Z,102996.84
2022-11-12T14:55:38.503Z,102993.38
2022-11-12T14:58:27.959Z,102995.84
2022-11-12T15:04:42.516Z,102997.38
2022-11-12T15:07:33.394Z,102997.22
2022-11-12T15:10:34.258Z,102990.28
2022-11-12T15:13:25.589Z,102990.91
2022-11-12T15:16:20.519Z,102985.97
2022-11-12T15:19:18.673Z,102979.97
2022-11-12T15:22:06.691Z,102977.53
2022-11-12T15:24:54.443Z,102982.56
2022-11-12T15:27:44.049Z,102980.56
2022-11-12T15:30:33.171Z,102976.66
2022-11-12T15:33:24.102Z,102980.34
2022-11-12T15:36:18.914Z,102982.31
2022-11-12T15:39:13.086Z,102983.09
2022-11-12T15:42:03.090Z,102987.31
2022-11-12T15:44:58.195Z,102977.13
2022-11-12T15:47:46.135Z,102982.13
2022-11-12T15:50:33.561Z,102977.19
2022-11-12T15:53:20.965Z,102975.75
2022-11-12T15:56:14.062Z,102975.38
2022-11-12T15:59:01.888Z,102975.88
2022-11-12T16:01:50.810Z,102973.59
2022-11-12T16:04:38.406Z,102974.03
2022-11-12T16:07:26.005Z,102976.66
2022-11-12T16:10:15.872Z,102978.66
2022-11-12T16:13:05.116Z,102984.13
2022-11-12T16:15:53.711Z,102987.03
2022-11-12T16:18:42.915Z,102992.84
2022-11-12T16:21:30.775Z,102996.06
2022-11-12T16:24:18.257Z,102992.06
2022-11-12T16:27:07.483Z,102987.22
2022-11-12T16:29:55.185Z,102997.88
2022-11-12T16:32:42.814Z,102992.38
2022-11-12T16:35:36.208Z,102989.97
2022-11-12T16:38:25.726Z,102991.72
2022-11-12T16:41:15.223Z,102998.16
2022-11-12T16:44:02.652Z,102997.16
2022-11-12T16:46:50.149Z,102999.91
2022-11-12T16:49:38.999Z,103002.03
2022-11-12T16:52:28.309Z,103012.56
2022-11-12T16:55:16.575Z,103017.94
2022-11-12T16:58:04.368Z,103029.03
2022-11-12T17:00:51.959Z,103029.59
2022-11-12T17:03:39.486Z,103026.41
2022-11-12T17:06:35.339Z,103021.34
2022-11-12T17:09:24.736Z,103022.41
2022-11-12T17:12:12.248Z,103016.06
2022-11-12T17:15:00.045Z,103013.06
2022-11-12T17:17:47.538Z,103011.44
2022-11-12T17:20:35.056Z,103002.69
2022-11-12T17:23:22.616Z,103001.09
2022-11-12T17:26:14.254Z,102986.75
2022-11-12T17:29:07.639Z,102995.69
2022-11-12T17:31:55.609Z,102989.22
2022-11-12T17:34:42.998Z,102986.13
2022-11-12T17:37:30.717Z,102992.22
2022-11-12T17:40:18.520Z,102983.91
2022-11-12T17:43:07.500Z,102984.13
2022-11-12T17:45:56.445Z,102984.91
2022-11-12T17:48:44.685Z,102985.75
2022-11-12T17:51:32.682Z,102995.69
2022-11-12T17:54:21.312Z,102990.09
2022-11-12T17:57:08.827Z,102982.28
2022-11-12T17:59:57.810Z,102987.00
2022-11-12T18:02:45.181Z,102984.63
2022-11-12T18:05:32.641Z,102981.28
2022-11-12T18:08:20.075Z,102982.16
2022-11-12T18:11:07.773Z,102982.75
2022-11-12T18:13:56.481Z,102979.75
2022-11-12T18:16:46.044Z,102983.81
2022-11-12T18:19:33.825Z,102986.38
2022-11-12T18:22:21.648Z,102987.91
2022-11-12T18:25:10.131Z,102983.16
2022-11-12T18:27:57.775Z,102980.53
2022-11-12T18:30:45.160Z,102970.50
2022-11-12T18:33:36.019Z,102966.56
2022-11-12T18:36:25.865Z,102960.91
2022-11-12T18:39:14.762Z,102953.72
2022-11-12T18:42:02.470Z,102953.97
2022-11-12T18:44:50.118Z,102958.19
2022-11-12T18:47:37.579Z,102948.41
2022-11-12T18:50:26.555Z,102948.81
2022-11-12T18:53:14.310Z,102953.75
2022-11-12T18:56:03.551Z,102953.72
2022-11-12T18:58:51.110Z,102951.00
2022-11-12T19:01:38.593Z,102945.41
2022-11-12T19:04:26.581Z,102945.56
2022-11-12T19:07:15.711Z,102938.78
2022-11-12T19:10:14.771Z,102936.91
2022-11-12T19:13:05.017Z,102948.78
2022-11-12T19:15:52.859Z,102941.44
2022-11-12T19:18:41.710Z,102943.22
2022-11-12T19:21:29.637Z,102940.91
2022-11-12T19:24:18.767Z,102937.00
2022-11-12T19:27:06.351Z,102933.81
2022-11-12T19:29:58.452Z,102942.88
2022-11-12T19:32:49.149Z,102938.47
2022-11-12T19:35:36.614Z,102935.09
2022-11-12T19:38:24.509Z,102933.56
2022-11-12T19:41:19.387Z,102932.66
2022-11-12T19:44:08.025Z,102931.91
2022-11-12T19:46:55.891Z,102923.13
2022-11-12T19:49:43.520Z,102920.13
2022-11-12T19:52:30.980Z,102912.72
2022-11-12T19:55:18.480Z,102905.84
2022-11-12T19:58:08.428Z,102909.75
2022-11-12T20:00:56.198Z,102905.41
2022-11-12T20:03:44.068Z,102915.41
2022-11-12T20:06:31.630Z,102911.22
2022-11-12T20:09:19.745Z,102905.03
2022-11-12T20:12:08.721Z,102901.56
2022-11-12T20:14:57.904Z,102898.28
2022-11-12T20:17:45.640Z,102901.63
2022-11-12T20:20:33.248Z,102898.81
2022-11-12T20:23:23.467Z,102899.66
2022-11-12T20:26:13.085Z,102901.06
2022-11-12T20:29:00.981Z,102895.75
2022-11-12T20:31:50.236Z,102899.78
2022-11-12T20:34:37.672Z,102897.56
2022-11-12T20:37:25.986Z,102890.66
2022-11-12T20:40:13.883Z,102895.25
2022-11-12T20:43:01.480Z,102896.88
2022-11-12T20:45:52.157Z,102908.59
2022-11-12T20:48:43.819Z,102897.97
2022-11-12T20:51:32.891Z,102901.41
2022-11-12T20:54:21.541Z,102892.09
2022-11-12T20:57:09.261Z,102891.38
2022-11-12T20:59:56.835Z,102889.66
2022-11-12T21:02:44.599Z,102893.34
2022-11-12T21:05:34.092Z,102884.72
2022-11-12T21:08:22.044Z,102891.91
2022-11-12T21:11:11.488Z,102889.44
2022-11-12T21:14:01.011Z,102890.38
2022-11-12T21:16:48.896Z,102899.69
2022-11-12T21:19:36.434Z,102892.22
2022-11-12T21:22:25.337Z,102888.25
2022-11-12T21:25:12.888Z,102882.53
2022-11-12T21:28:00.605Z,102886.94
2022-11-12T21:30:48.319Z,102884.97
2022-11-12T21:33:36.283Z,102875.13
2022-11-12T21:36:24.663Z,102877.53
2022-11-12T21:39:13.950Z,102874.94
2022-11-12T21:42:01.678Z,102871.72
2022-11-12T21:44:49.544Z,102874.53
2022-11-12T21:47:37.173Z,102873.94
2022-11-12T21:50:24.974Z,102865.50
2022-11-12T21:53:12.564Z,102878.72
2022-11-12T21:56:04.857Z,102889.09
2022-11-12T21:58:53.450Z,102881.50
2022-11-12T22:01:41.911Z,102882.41
2022-11-12T22:04:29.873Z,102879.94
2022-11-12T22:07:17.619Z,102889.47
2022-11-12T22:10:06.354Z,102890.63
2022-11-12T22:13:24.745Z,102890.69
2022-11-12T22:16:07.206Z,102882.16
2022-11-12T22:18:56.591Z,102889.16
2022-11-12T22:21:44.404Z,102875.75
2022-11-12T22:24:32.196Z,102881.34
2022-11-12T22:27:19.751Z,102870.34
2022-11-12T22:30:10.149Z,102866.88
2022-11-12T22:32:58.208Z,102857.25
2022-11-12T22:35:46.304Z,102859.47
2022-11-12T22:38:35.293Z,102857.41
2022-11-12T22:41:25.462Z,102858.28
2022-11-12T22:44:13.308Z,102857.00
2022-11-12T22:47:05.235Z,102858.31
2022-11-12T22:49:53.119Z,102858.22
2022-11-12T22:52:43.482Z,102861.94
2022-11-12T22:55:35.315Z,102850.91
2022-11-12T22:58:23.137Z,102863.00
2022-11-12T23:01:20.733Z,102865.44
2022-11-12T23:04:09.938Z,102870.53
2022-11-12T23:06:57.810Z,102872.13
2022-11-12T23:09:45.461Z,102864.44
2022-11-12T23:12:32.916Z,102862.56
2022-11-12T23:15:20.426Z,102862.38
2022-11-12T23:18:08.079Z,102858.78
2022-11-12T23:21:03.499Z,102870.31
2022-11-12T23:23:51.506Z,102869.38
2022-11-12T23:26:39.466Z,102871.13
2022-11-12T23:29:27.425Z,102867.75
2022-11-12T23:32:15.165Z,102861.97
2022-11-12T23:35:02.889Z,102858.69
2022-11-12T23:37:53.133Z,102858.13
2022-11-12T23:40:40.663Z,102859.72
2022-11-12T23:43:28.175Z,102851.97
2022-11-12T23:46:16.203Z,102853.00
2022-11-12T23:49:04.263Z,102852.81
2022-11-12T23:51:51.694Z,102859.94
2022-11-12T23:54:40.850Z,102855.03
2022-11-12T23:57:28.528Z,102855.38
